sensor_id;sensor_type;location;lat;lon;timestamp;P1;durP1;ratioP1;P2;durP2;ratioP2
74799;SDS011;63326;45.088;7.658;2023-05-10T00:00:20;12.30;;;6.18;;
74799;SDS011;63326;45.088;7.658;2023-05-10T00:02:49;8.38;;;4.93;;
74799;SDS011;63326;45.088;7.658;2023-05-10T00:05:15;10.40;;;7.00;;
74799;SDS011;63326;45.088;7.658;2023-05-10T00:07:42;10.57;;;5.90;;
74799;SDS011;63326;45.088;7.658;2023-05-10T00:10:12;10.32;;;5.25;;
74799;SDS011;63326;45.088;7.658;2023-05-10T00:12:39;10.35;;;5.97;;
74799;SDS011;63326;45.088;7.658;2023-05-10T00:15:06;9.23;;;4.82;;
74799;SDS011;63326;45.088;7.658;2023-05-10T00:20:01;8.57;;;4.55;;
74799;SDS011;63326;45.088;7.658;2023-05-10T00:22:28;9.32;;;5.53;;
74799;SDS011;63326;45.088;7.658;2023-05-10T00:24:54;9.98;;;6.00;;
74799;SDS011;63326;45.088;7.658;2023-05-10T00:27:21;8.88;;;5.30;;
74799;SDS011;63326;45.088;7.658;2023-05-10T00:29:50;9.52;;;5.65;;
74799;SDS011;63326;45.088;7.658;2023-05-10T00:32:17;8.88;;;5.80;;
74799;SDS011;63326;45.088;7.658;2023-05-10T00:34:44;9.30;;;5.85;;
74799;SDS011;63326;45.088;7.658;2023-05-10T00:37:10;9.68;;;6.05;;
74799;SDS011;63326;45.088;7.658;2023-05-10T00:39:37;10.18;;;6.32;;
74799;SDS011;63326;45.088;7.658;2023-05-10T00:42:04;8.40;;;4.88;;
74799;SDS011;63326;45.088;7.658;2023-05-10T00:44:31;8.82;;;4.45;;
74799;SDS011;63326;45.088;7.658;2023-05-10T00:46:58;16.50;;;5.90;;
74799;SDS011;63326;45.088;7.658;2023-05-10T00:49:25;8.57;;;5.55;;
74799;SDS011;63326;45.088;7.658;2023-05-10T00:51:52;9.95;;;4.78;;
74799;SDS011;63326;45.088;7.658;2023-05-10T00:54:19;11.30;;;5.10;;
74799;SDS011;63326;45.088;7.658;2023-05-10T00:56:46;8.02;;;5.63;;
74799;SDS011;63326;45.088;7.658;2023-05-10T00:59:16;9.55;;;4.57;;
74799;SDS011;63326;45.088;7.658;2023-05-10T01:01:44;6.70;;;3.38;;
74799;SDS011;63326;45.088;7.658;2023-05-10T01:04:11;7.30;;;3.70;;
74799;SDS011;63326;45.088;7.658;2023-05-10T01:06:41;5.85;;;2.92;;
74799;SDS011;63326;45.088;7.658;2023-05-10T01:09:10;5.70;;;3.58;;
74799;SDS011;63326;45.088;7.658;2023-05-10T01:11:38;4.70;;;2.15;;
74799;SDS011;63326;45.088;7.658;2023-05-10T01:14:06;4.20;;;2.55;;
74799;SDS011;63326;45.088;7.658;2023-05-10T01:16:34;3.95;;;2.20;;
74799;SDS011;63326;45.088;7.658;2023-05-10T01:19:04;3.63;;;2.20;;
74799;SDS011;63326;45.088;7.658;2023-05-10T01:34:55;2.45;;;1.65;;
74799;SDS011;63326;45.088;7.658;2023-05-10T01:37:29;2.95;;;1.30;;
74799;SDS011;63326;45.088;7.658;2023-05-10T01:42:40;4.80;;;2.13;;
74799;SDS011;63326;45.088;7.658;2023-05-10T01:45:24;4.20;;;1.63;;
74799;SDS011;63326;45.088;7.658;2023-05-10T01:47:59;2.08;;;1.40;;
74799;SDS011;63326;45.088;7.658;2023-05-10T01:50:34;2.60;;;1.77;;
74799;SDS011;63326;45.088;7.658;2023-05-10T01:53:05;2.20;;;1.20;;
74799;SDS011;63326;45.088;7.658;2023-05-10T01:55:45;1.60;;;0.90;;
74799;SDS011;63326;45.088;7.658;2023-05-10T01:58:17;2.88;;;1.33;;
74799;SDS011;63326;45.088;7.658;2023-05-10T02:00:49;1.63;;;0.85;;
74799;SDS011;63326;45.088;7.658;2023-05-10T02:03:18;1.98;;;0.90;;
74799;SDS011;63326;45.088;7.658;2023-05-10T02:05:48;2.17;;;0.55;;
74799;SDS011;63326;45.088;7.658;2023-05-10T02:08:19;0.63;;;0.43;;
74799;SDS011;63326;45.088;7.658;2023-05-10T02:10:49;1.02;;;0.63;;
74799;SDS011;63326;45.088;7.658;2023-05-10T02:13:18;0.57;;;0.32;;
74799;SDS011;63326;45.088;7.658;2023-05-10T02:15:46;0.80;;;0.47;;
74799;SDS011;63326;45.088;7.658;2023-05-10T02:18:15;1.73;;;0.68;;
74799;SDS011;63326;45.088;7.658;2023-05-10T02:20:44;1.02;;;0.60;;
74799;SDS011;63326;45.088;7.658;2023-05-10T02:23:14;0.82;;;0.50;;
74799;SDS011;63326;45.088;7.658;2023-05-10T02:25:43;0.70;;;0.40;;
74799;SDS011;63326;45.088;7.658;2023-05-10T02:28:13;1.52;;;0.80;;
74799;SDS011;63326;45.088;7.658;2023-05-10T02:30:42;1.30;;;0.57;;
74799;SDS011;63326;45.088;7.658;2023-05-10T02:33:09;0.63;;;0.43;;
74799;SDS011;63326;45.088;7.658;2023-05-10T02:35:38;0.90;;;0.45;;
74799;SDS011;63326;45.088;7.658;2023-05-10T02:38:05;1.30;;;0.55;;
74799;SDS011;63326;45.088;7.658;2023-05-10T02:40:33;2.08;;;1.00;;
74799;SDS011;63326;45.088;7.658;2023-05-10T02:43:02;1.75;;;0.90;;
74799;SDS011;63326;45.088;7.658;2023-05-10T02:45:32;1.23;;;0.55;;
74799;SDS011;63326;45.088;7.658;2023-05-10T02:48:01;1.65;;;0.80;;
74799;SDS011;63326;45.088;7.658;2023-05-10T02:50:29;0.95;;;0.50;;
74799;SDS011;63326;45.088;7.658;2023-05-10T02:53:03;1.95;;;0.82;;
74799;SDS011;63326;45.088;7.658;2023-05-10T02:55:36;1.30;;;0.73;;
74799;SDS011;63326;45.088;7.658;2023-05-10T02:58:05;1.83;;;0.85;;
74799;SDS011;63326;45.088;7.658;2023-05-10T03:00:33;1.25;;;0.60;;
74799;SDS011;63326;45.088;7.658;2023-05-10T03:03:00;1.80;;;0.70;;
74799;SDS011;63326;45.088;7.658;2023-05-10T03:05:27;0.90;;;0.50;;
74799;SDS011;63326;45.088;7.658;2023-05-10T03:07:57;1.60;;;0.75;;
74799;SDS011;63326;45.088;7.658;2023-05-10T03:10:26;1.65;;;0.93;;
74799;SDS011;63326;45.088;7.658;2023-05-10T03:19:05;1.75;;;0.88;;
74799;SDS011;63326;45.088;7.658;2023-05-10T03:21:14;1.33;;;0.70;;
74799;SDS011;63326;45.088;7.658;2023-05-10T03:23:50;2.05;;;0.90;;
74799;SDS011;63326;45.088;7.658;2023-05-10T03:26:26;1.27;;;0.60;;
74799;SDS011;63326;45.088;7.658;2023-05-10T03:29:05;1.00;;;0.57;;
74799;SDS011;63326;45.088;7.658;2023-05-10T03:31:32;1.20;;;0.60;;
74799;SDS011;63326;45.088;7.658;2023-05-10T03:33:59;1.83;;;0.73;;
74799;SDS011;63326;45.088;7.658;2023-05-10T03:36:26;5.10;;;1.10;;
74799;SDS011;63326;45.088;7.658;2023-05-10T03:41:21;0.65;;;0.47;;
74799;SDS011;63326;45.088;7.658;2023-05-10T03:43:51;1.10;;;0.57;;
74799;SDS011;63326;45.088;7.658;2023-05-10T03:46:18;1.92;;;1.42;;
74799;SDS011;63326;45.088;7.658;2023-05-10T03:48:45;1.42;;;0.77;;
74799;SDS011;63326;45.088;7.658;2023-05-10T03:51:11;2.85;;;1.35;;
74799;SDS011;63326;45.088;7.658;2023-05-10T03:53:38;3.25;;;1.17;;
74799;SDS011;63326;45.088;7.658;2023-05-10T03:56:05;2.92;;;1.52;;
74799;SDS011;63326;45.088;7.658;2023-05-10T03:58:32;2.97;;;1.65;;
74799;SDS011;63326;45.088;7.658;2023-05-10T04:00:59;2.25;;;1.02;;
74799;SDS011;63326;45.088;7.658;2023-05-10T04:03:25;2.15;;;1.40;;
74799;SDS011;63326;45.088;7.658;2023-05-10T04:05:59;2.03;;;1.08;;
74799;SDS011;63326;45.088;7.658;2023-05-10T04:08:27;2.10;;;1.00;;
74799;SDS011;63326;45.088;7.658;2023-05-10T04:11:05;2.78;;;0.98;;
74799;SDS011;63326;45.088;7.658;2023-05-10T04:13:38;2.42;;;1.33;;
74799;SDS011;63326;45.088;7.658;2023-05-10T04:16:05;2.50;;;1.27;;
74799;SDS011;63326;45.088;7.658;2023-05-10T04:18:31;1.13;;;0.63;;
74799;SDS011;63326;45.088;7.658;2023-05-10T04:20:59;2.20;;;1.15;;
74799;SDS011;63326;45.088;7.658;2023-05-10T04:23:27;2.63;;;1.48;;
74799;SDS011;63326;45.088;7.658;2023-05-10T04:26:01;3.38;;;1.90;;
74799;SDS011;63326;45.088;7.658;2023-05-10T04:28:29;2.42;;;1.10;;
74799;SDS011;63326;45.088;7.658;2023-05-10T04:31:05;4.70;;;1.88;;
74799;SDS011;63326;45.088;7.658;2023-05-10T04:33:34;3.45;;;1.33;;
74799;SDS011;63326;45.088;7.658;2023-05-10T04:36:02;2.88;;;1.63;;
74799;SDS011;63326;45.088;7.658;2023-05-10T04:38:29;3.10;;;1.58;;
74799;SDS011;63326;45.088;7.658;2023-05-10T04:41:04;2.00;;;1.20;;
74799;SDS011;63326;45.088;7.658;2023-05-10T04:43:36;3.08;;;1.48;;
74799;SDS011;63326;45.088;7.658;2023-05-10T04:46:04;2.13;;;1.20;;
74799;SDS011;63326;45.088;7.658;2023-05-10T04:50:59;4.57;;;1.25;;
74799;SDS011;63326;45.088;7.658;2023-05-10T04:53:29;3.72;;;1.40;;
74799;SDS011;63326;45.088;7.658;2023-05-10T04:55:56;2.63;;;1.20;;
74799;SDS011;63326;45.088;7.658;2023-05-10T04:58:23;3.10;;;1.48;;
74799;SDS011;63326;45.088;7.658;2023-05-10T05:00:50;3.75;;;1.70;;
74799;SDS011;63326;45.088;7.658;2023-05-10T05:03:16;2.75;;;1.50;;
74799;SDS011;63326;45.088;7.658;2023-05-10T05:05:43;2.67;;;1.40;;
74799;SDS011;63326;45.088;7.658;2023-05-10T05:08:11;2.70;;;1.27;;
74799;SDS011;63326;45.088;7.658;2023-05-10T05:10:38;4.38;;;1.48;;
74799;SDS011;63326;45.088;7.658;2023-05-10T05:13:04;3.25;;;1.73;;
74799;SDS011;63326;45.088;7.658;2023-05-10T05:15:32;2.45;;;1.27;;
74799;SDS011;63326;45.088;7.658;2023-05-10T05:17:59;2.05;;;1.20;;
74799;SDS011;63326;45.088;7.658;2023-05-10T05:20:26;2.17;;;1.40;;
74799;SDS011;63326;45.088;7.658;2023-05-10T05:22:54;2.00;;;1.25;;
74799;SDS011;63326;45.088;7.658;2023-05-10T05:25:22;3.00;;;1.60;;
74799;SDS011;63326;45.088;7.658;2023-05-10T05:27:51;2.60;;;1.45;;
74799;SDS011;63326;45.088;7.658;2023-05-10T05:30:18;1.63;;;1.17;;
74799;SDS011;63326;45.088;7.658;2023-05-10T05:32:44;5.57;;;1.63;;
74799;SDS011;63326;45.088;7.658;2023-05-10T05:35:13;2.13;;;1.15;;
74799;SDS011;63326;45.088;7.658;2023-05-10T05:37:40;2.03;;;0.93;;
74799;SDS011;63326;45.088;7.658;2023-05-10T05:40:07;2.70;;;1.55;;
74799;SDS011;63326;45.088;7.658;2023-05-10T05:42:34;2.85;;;1.48;;
74799;SDS011;63326;45.088;7.658;2023-05-10T05:45:01;3.15;;;0.95;;
74799;SDS011;63326;45.088;7.658;2023-05-10T05:47:28;2.42;;;1.55;;
74799;SDS011;63326;45.088;7.658;2023-05-10T05:49:55;2.17;;;1.10;;
74799;SDS011;63326;45.088;7.658;2023-05-10T05:52:22;3.17;;;1.67;;
74799;SDS011;63326;45.088;7.658;2023-05-10T05:54:51;2.53;;;1.52;;
74799;SDS011;63326;45.088;7.658;2023-05-10T05:57:18;3.45;;;1.27;;
74799;SDS011;63326;45.088;7.658;2023-05-10T05:59:45;2.47;;;1.58;;
74799;SDS011;63326;45.088;7.658;2023-05-10T06:02:13;2.88;;;1.33;;
74799;SDS011;63326;45.088;7.658;2023-05-10T06:04:40;2.78;;;1.35;;
74799;SDS011;63326;45.088;7.658;2023-05-10T06:07:10;3.30;;;1.60;;
74799;SDS011;63326;45.088;7.658;2023-05-10T06:09:36;3.78;;;1.80;;
74799;SDS011;63326;45.088;7.658;2023-05-10T06:12:04;3.97;;;2.25;;
74799;SDS011;63326;45.088;7.658;2023-05-10T06:14:31;3.75;;;2.05;;
74799;SDS011;63326;45.088;7.658;2023-05-10T06:16:58;3.53;;;1.90;;
74799;SDS011;63326;45.088;7.658;2023-05-10T06:19:26;4.00;;;1.98;;
74799;SDS011;63326;45.088;7.658;2023-05-10T06:21:53;4.75;;;3.10;;
74799;SDS011;63326;45.088;7.658;2023-05-10T06:24:20;6.28;;;2.42;;
74799;SDS011;63326;45.088;7.658;2023-05-10T06:26:50;3.03;;;2.00;;
74799;SDS011;63326;45.088;7.658;2023-05-10T06:29:16;4.15;;;2.20;;
74799;SDS011;63326;45.088;7.658;2023-05-10T06:31:43;5.45;;;2.97;;
74799;SDS011;63326;45.088;7.658;2023-05-10T06:34:21;4.00;;;2.45;;
74799;SDS011;63326;45.088;7.658;2023-05-10T06:36:52;3.53;;;2.30;;
74799;SDS011;63326;45.088;7.658;2023-05-10T06:39:19;3.92;;;2.40;;
74799;SDS011;63326;45.088;7.658;2023-05-10T06:41:48;3.97;;;2.20;;
74799;SDS011;63326;45.088;7.658;2023-05-10T06:44:15;5.70;;;2.90;;
74799;SDS011;63326;45.088;7.658;2023-05-10T06:46:46;4.13;;;2.42;;
74799;SDS011;63326;45.088;7.658;2023-05-10T06:49:13;3.55;;;2.33;;
74799;SDS011;63326;45.088;7.658;2023-05-10T06:51:40;5.88;;;2.67;;
74799;SDS011;63326;45.088;7.658;2023-05-10T06:54:07;31.20;;;15.25;;
74799;SDS011;63326;45.088;7.658;2023-05-10T06:56:34;16.27;;;7.15;;
74799;SDS011;63326;45.088;7.658;2023-05-10T06:59:00;4.57;;;2.95;;
74799;SDS011;63326;45.088;7.658;2023-05-10T07:01:27;4.72;;;2.90;;
74799;SDS011;63326;45.088;7.658;2023-05-10T07:03:54;5.30;;;2.70;;
74799;SDS011;63326;45.088;7.658;2023-05-10T07:06:21;3.92;;;2.25;;
74799;SDS011;63326;45.088;7.658;2023-05-10T07:08:59;5.00;;;2.72;;
74799;SDS011;63326;45.088;7.658;2023-05-10T07:11:27;5.78;;;3.47;;
74799;SDS011;63326;45.088;7.658;2023-05-10T07:13:53;5.43;;;3.65;;
74799;SDS011;63326;45.088;7.658;2023-05-10T07:16:23;5.13;;;3.30;;
74799;SDS011;63326;45.088;7.658;2023-05-10T07:18:49;4.75;;;2.83;;
74799;SDS011;63326;45.088;7.658;2023-05-10T07:21:18;6.80;;;2.95;;
74799;SDS011;63326;45.088;7.658;2023-05-10T07:23:45;6.10;;;3.17;;
74799;SDS011;63326;45.088;7.658;2023-05-10T07:26:16;5.43;;;3.30;;
74799;SDS011;63326;45.088;7.658;2023-05-10T07:28:46;5.53;;;3.38;;
74799;SDS011;63326;45.088;7.658;2023-05-10T07:31:16;5.18;;;3.25;;
74799;SDS011;63326;45.088;7.658;2023-05-10T07:33:43;5.38;;;3.10;;
74799;SDS011;63326;45.088;7.658;2023-05-10T07:36:10;5.68;;;3.17;;
74799;SDS011;63326;45.088;7.658;2023-05-10T07:38:37;8.52;;;3.90;;
74799;SDS011;63326;45.088;7.658;2023-05-10T07:41:06;5.75;;;3.30;;
74799;SDS011;63326;45.088;7.658;2023-05-10T07:43:33;6.78;;;4.15;;
74799;SDS011;63326;45.088;7.658;2023-05-10T07:46:00;5.03;;;2.83;;
74799;SDS011;63326;45.088;7.658;2023-05-10T07:48:27;6.25;;;3.80;;
74799;SDS011;63326;45.088;7.658;2023-05-10T07:50:53;5.95;;;2.90;;
74799;SDS011;63326;45.088;7.658;2023-05-10T07:53:26;5.28;;;3.22;;
74799;SDS011;63326;45.088;7.658;2023-05-10T07:55:57;7.70;;;4.03;;
74799;SDS011;63326;45.088;7.658;2023-05-10T07:58:24;6.43;;;3.40;;
74799;SDS011;63326;45.088;7.658;2023-05-10T08:00:51;8.15;;;3.92;;
74799;SDS011;63326;45.088;7.658;2023-05-10T08:03:18;6.75;;;3.30;;
74799;SDS011;63326;45.088;7.658;2023-05-10T08:05:46;5.82;;;3.88;;
74799;SDS011;63326;45.088;7.658;2023-05-10T08:08:12;6.38;;;3.47;;
74799;SDS011;63326;45.088;7.658;2023-05-10T08:10:39;5.60;;;3.75;;
74799;SDS011;63326;45.088;7.658;2023-05-10T08:13:06;7.85;;;3.92;;
74799;SDS011;63326;45.088;7.658;2023-05-10T08:15:32;4.80;;;3.03;;
74799;SDS011;63326;45.088;7.658;2023-05-10T08:17:59;4.97;;;3.55;;
74799;SDS011;63326;45.088;7.658;2023-05-10T08:20:26;5.60;;;3.30;;
74799;SDS011;63326;45.088;7.658;2023-05-10T08:22:53;6.03;;;3.88;;
74799;SDS011;63326;45.088;7.658;2023-05-10T08:25:19;6.60;;;3.30;;
74799;SDS011;63326;45.088;7.658;2023-05-10T08:27:46;7.50;;;3.80;;
74799;SDS011;63326;45.088;7.658;2023-05-10T08:30:13;7.38;;;4.15;;
74799;SDS011;63326;45.088;7.658;2023-05-10T08:32:40;6.57;;;4.00;;
74799;SDS011;63326;45.088;7.658;2023-05-10T08:35:07;6.80;;;3.72;;
74799;SDS011;63326;45.088;7.658;2023-05-10T08:37:34;6.78;;;3.47;;
74799;SDS011;63326;45.088;7.658;2023-05-10T08:40:01;6.70;;;4.20;;
74799;SDS011;63326;45.088;7.658;2023-05-10T08:42:28;5.65;;;3.05;;
74799;SDS011;63326;45.088;7.658;2023-05-10T08:44:57;5.95;;;3.20;;
74799;SDS011;63326;45.088;7.658;2023-05-10T08:47:25;5.90;;;3.60;;
74799;SDS011;63326;45.088;7.658;2023-05-10T08:49:53;5.85;;;2.78;;
74799;SDS011;63326;45.088;7.658;2023-05-10T08:52:21;6.88;;;4.45;;
74799;SDS011;63326;45.088;7.658;2023-05-10T08:54:49;5.28;;;3.33;;
74799;SDS011;63326;45.088;7.658;2023-05-10T08:57:19;6.28;;;3.42;;
74799;SDS011;63326;45.088;7.658;2023-05-10T08:59:46;6.97;;;3.60;;
74799;SDS011;63326;45.088;7.658;2023-05-10T09:02:14;5.68;;;3.13;;
74799;SDS011;63326;45.088;7.658;2023-05-10T09:04:44;5.95;;;3.50;;
74799;SDS011;63326;45.088;7.658;2023-05-10T09:07:10;7.47;;;3.88;;
74799;SDS011;63326;45.088;7.658;2023-05-10T09:09:37;6.05;;;3.38;;
74799;SDS011;63326;45.088;7.658;2023-05-10T09:12:04;6.50;;;3.63;;
74799;SDS011;63326;45.088;7.658;2023-05-10T09:14:35;7.22;;;4.43;;
74799;SDS011;63326;45.088;7.658;2023-05-10T09:17:05;7.43;;;3.70;;
74799;SDS011;63326;45.088;7.658;2023-05-10T09:19:33;5.15;;;3.67;;
74799;SDS011;63326;45.088;7.658;2023-05-10T09:22:06;5.40;;;2.83;;
74799;SDS011;63326;45.088;7.658;2023-05-10T09:24:33;6.85;;;3.03;;
74799;SDS011;63326;45.088;7.658;2023-05-10T09:27:06;7.38;;;3.35;;
74799;SDS011;63326;45.088;7.658;2023-05-10T09:29:42;5.32;;;3.40;;
74799;SDS011;63326;45.088;7.658;2023-05-10T09:32:09;5.05;;;3.35;;
74799;SDS011;63326;45.088;7.658;2023-05-10T09:34:35;6.90;;;2.42;;
74799;SDS011;63326;45.088;7.658;2023-05-10T09:37:06;6.25;;;2.92;;
74799;SDS011;63326;45.088;7.658;2023-05-10T09:39:35;4.72;;;2.63;;
74799;SDS011;63326;45.088;7.658;2023-05-10T09:42:06;6.70;;;3.05;;
74799;SDS011;63326;45.088;7.658;2023-05-10T09:44:36;6.30;;;3.33;;
74799;SDS011;63326;45.088;7.658;2023-05-10T09:47:04;4.85;;;2.65;;
74799;SDS011;63326;45.088;7.658;2023-05-10T09:49:31;5.32;;;3.78;;
74799;SDS011;63326;45.088;7.658;2023-05-10T09:52:04;6.10;;;2.75;;
74799;SDS011;63326;45.088;7.658;2023-05-10T09:54:33;4.65;;;2.83;;
74799;SDS011;63326;45.088;7.658;2023-05-10T09:57:00;4.75;;;2.75;;
74799;SDS011;63326;45.088;7.658;2023-05-10T09:59:27;6.63;;;3.47;;
74799;SDS011;63326;45.088;7.658;2023-05-10T10:01:58;4.25;;;2.83;;
74799;SDS011;63326;45.088;7.658;2023-05-10T10:04:28;5.70;;;3.42;;
74799;SDS011;63326;45.088;7.658;2023-05-10T10:06:59;5.15;;;2.72;;
74799;SDS011;63326;45.088;7.658;2023-05-10T10:09:28;5.57;;;2.97;;
74799;SDS011;63326;45.088;7.658;2023-05-10T10:11:55;6.35;;;4.07;;
74799;SDS011;63326;45.088;7.658;2023-05-10T10:14:23;7.75;;;4.35;;
74799;SDS011;63326;45.088;7.658;2023-05-10T10:16:50;7.55;;;3.88;;
74799;SDS011;63326;45.088;7.658;2023-05-10T10:19:35;6.43;;;3.70;;
74799;SDS011;63326;45.088;7.658;2023-05-10T10:22:03;5.68;;;3.72;;
74799;SDS011;63326;45.088;7.658;2023-05-10T10:24:30;5.85;;;3.33;;
74799;SDS011;63326;45.088;7.658;2023-05-10T10:26:59;7.20;;;3.60;;
74799;SDS011;63326;45.088;7.658;2023-05-10T10:32:19;7.40;;;4.60;;
74799;SDS011;63326;45.088;7.658;2023-05-10T10:34:53;6.38;;;3.05;;
74799;SDS011;63326;45.088;7.658;2023-05-10T10:37:21;8.07;;;4.05;;
74799;SDS011;63326;45.088;7.658;2023-05-10T10:39:48;6.45;;;3.30;;
74799;SDS011;63326;45.088;7.658;2023-05-10T10:42:43;5.82;;;3.50;;
74799;SDS011;63326;45.088;7.658;2023-05-10T10:45:13;6.20;;;3.42;;
74799;SDS011;63326;45.088;7.658;2023-05-10T10:47:40;7.72;;;3.38;;
74799;SDS011;63326;45.088;7.658;2023-05-10T10:50:09;7.03;;;4.32;;
74799;SDS011;63326;45.088;7.658;2023-05-10T10:52:39;7.22;;;3.83;;
74799;SDS011;63326;45.088;7.658;2023-05-10T10:57:42;6.78;;;3.80;;
74799;SDS011;63326;45.088;7.658;2023-05-10T11:00:31;6.20;;;3.33;;
74799;SDS011;63326;45.088;7.658;2023-05-10T11:03:12;5.20;;;3.63;;
74799;SDS011;63326;45.088;7.658;2023-05-10T11:05:46;5.93;;;3.83;;
74799;SDS011;63326;45.088;7.658;2023-05-10T11:08:27;5.57;;;3.97;;
74799;SDS011;63326;45.088;7.658;2023-05-10T11:13:29;5.90;;;3.72;;
74799;SDS011;63326;45.088;7.658;2023-05-10T11:16:27;4.85;;;3.53;;
74799;SDS011;63326;45.088;7.658;2023-05-10T11:18:57;4.85;;;3.50;;
74799;SDS011;63326;45.088;7.658;2023-05-10T11:21:29;5.07;;;4.15;;
74799;SDS011;63326;45.088;7.658;2023-05-10T11:23:58;5.88;;;4.75;;
74799;SDS011;63326;45.088;7.658;2023-05-10T11:26:32;6.38;;;3.75;;
74799;SDS011;63326;45.088;7.658;2023-05-10T11:29:01;6.20;;;4.47;;
74799;SDS011;63326;45.088;7.658;2023-05-10T11:31:31;5.97;;;4.88;;
74799;SDS011;63326;45.088;7.658;2023-05-10T11:33:58;5.85;;;4.13;;
74799;SDS011;63326;45.088;7.658;2023-05-10T11:36:29;6.43;;;4.43;;
74799;SDS011;63326;45.088;7.658;2023-05-10T11:38:59;5.47;;;4.57;;
74799;SDS011;63326;45.088;7.658;2023-05-10T11:43:55;4.45;;;3.03;;
74799;SDS011;63326;45.088;7.658;2023-05-10T11:46:23;4.70;;;3.53;;
74799;SDS011;63326;45.088;7.658;2023-05-10T11:48:53;6.07;;;3.95;;
74799;SDS011;63326;45.088;7.658;2023-05-10T11:51:25;4.47;;;3.35;;
74799;SDS011;63326;45.088;7.658;2023-05-10T11:53:55;5.30;;;3.25;;
74799;SDS011;63326;45.088;7.658;2023-05-10T11:56:23;4.93;;;4.15;;
74799;SDS011;63326;45.088;7.658;2023-05-10T11:58:53;4.75;;;3.88;;
74799;SDS011;63326;45.088;7.658;2023-05-10T12:01:22;4.88;;;3.65;;
74799;SDS011;63326;45.088;7.658;2023-05-10T12:03:50;4.10;;;3.47;;
74799;SDS011;63326;45.088;7.658;2023-05-10T12:06:19;4.95;;;3.97;;
74799;SDS011;63326;45.088;7.658;2023-05-10T12:08:47;4.85;;;3.63;;
74799;SDS011;63326;45.088;7.658;2023-05-10T12:11:18;5.07;;;3.28;;
74799;SDS011;63326;45.088;7.658;2023-05-10T12:13:48;4.15;;;2.75;;
74799;SDS011;63326;45.088;7.658;2023-05-10T12:16:16;4.38;;;3.65;;
74799;SDS011;63326;45.088;7.658;2023-05-10T12:18:58;4.78;;;4.05;;
74799;SDS011;63326;45.088;7.658;2023-05-10T12:21:29;4.32;;;3.50;;
74799;SDS011;63326;45.088;7.658;2023-05-10T12:24:03;4.22;;;3.40;;
74799;SDS011;63326;45.088;7.658;2023-05-10T12:26:31;4.47;;;3.58;;
74799;SDS011;63326;45.088;7.658;2023-05-10T12:31:57;4.53;;;3.65;;
74799;SDS011;63326;45.088;7.658;2023-05-10T12:34:32;4.80;;;3.00;;
74799;SDS011;63326;45.088;7.658;2023-05-10T12:37:03;5.38;;;2.85;;
74799;SDS011;63326;45.088;7.658;2023-05-10T12:39:43;4.40;;;2.92;;
74799;SDS011;63326;45.088;7.658;2023-05-10T12:42:11;5.32;;;2.75;;
74799;SDS011;63326;45.088;7.658;2023-05-10T12:44:38;4.30;;;2.53;;
74799;SDS011;63326;45.088;7.658;2023-05-10T12:47:06;4.40;;;2.45;;
74799;SDS011;63326;45.088;7.658;2023-05-10T12:49:32;5.72;;;2.72;;
74799;SDS011;63326;45.088;7.658;2023-05-10T12:52:00;4.80;;;2.85;;
74799;SDS011;63326;45.088;7.658;2023-05-10T12:54:27;4.03;;;3.03;;
74799;SDS011;63326;45.088;7.658;2023-05-10T12:59:20;4.03;;;2.20;;
74799;SDS011;63326;45.088;7.658;2023-05-10T13:01:47;4.53;;;2.80;;
74799;SDS011;63326;45.088;7.658;2023-05-10T13:04:13;3.67;;;2.33;;
74799;SDS011;63326;45.088;7.658;2023-05-10T13:06:40;3.75;;;2.42;;
74799;SDS011;63326;45.088;7.658;2023-05-10T13:09:07;3.75;;;2.30;;
74799;SDS011;63326;45.088;7.658;2023-05-10T13:11:34;3.70;;;2.60;;
74799;SDS011;63326;45.088;7.658;2023-05-10T13:14:00;3.50;;;2.10;;
74799;SDS011;63326;45.088;7.658;2023-05-10T13:16:29;4.15;;;2.10;;
74799;SDS011;63326;45.088;7.658;2023-05-10T13:18:56;3.22;;;1.90;;
74799;SDS011;63326;45.088;7.658;2023-05-10T13:21:23;3.33;;;2.22;;
74799;SDS011;63326;45.088;7.658;2023-05-10T13:23:51;3.65;;;2.30;;
74799;SDS011;63326;45.088;7.658;2023-05-10T13:26:18;3.42;;;2.13;;
74799;SDS011;63326;45.088;7.658;2023-05-10T13:28:45;4.20;;;2.92;;
74799;SDS011;63326;45.088;7.658;2023-05-10T13:33:38;3.20;;;1.83;;
74799;SDS011;63326;45.088;7.658;2023-05-10T13:36:05;3.42;;;2.55;;
74799;SDS011;63326;45.088;7.658;2023-05-10T13:38:32;4.85;;;2.30;;
74799;SDS011;63326;45.088;7.658;2023-05-10T13:40:59;3.92;;;2.63;;
74799;SDS011;63326;45.088;7.658;2023-05-10T13:43:26;4.20;;;2.97;;
74799;SDS011;63326;45.088;7.658;2023-05-10T13:45:52;4.50;;;2.25;;
74799;SDS011;63326;45.088;7.658;2023-05-10T13:48:19;3.88;;;2.97;;
74799;SDS011;63326;45.088;7.658;2023-05-10T13:50:46;3.30;;;2.30;;
74799;SDS011;63326;45.088;7.658;2023-05-10T13:53:13;3.92;;;2.53;;
74799;SDS011;63326;45.088;7.658;2023-05-10T13:55:41;3.40;;;2.50;;
74799;SDS011;63326;45.088;7.658;2023-05-10T13:58:07;2.47;;;1.67;;
74799;SDS011;63326;45.088;7.658;2023-05-10T14:00:34;4.15;;;2.10;;
74799;SDS011;63326;45.088;7.658;2023-05-10T14:03:00;4.70;;;2.70;;
74799;SDS011;63326;45.088;7.658;2023-05-10T14:05:27;3.47;;;2.17;;
74799;SDS011;63326;45.088;7.658;2023-05-10T14:07:54;3.42;;;2.97;;
74799;SDS011;63326;45.088;7.658;2023-05-10T14:10:21;3.00;;;2.17;;
74799;SDS011;63326;45.088;7.658;2023-05-10T14:12:49;5.70;;;3.65;;
74799;SDS011;63326;45.088;7.658;2023-05-10T14:15:16;3.90;;;2.72;;
74799;SDS011;63326;45.088;7.658;2023-05-10T14:17:43;4.43;;;2.95;;
74799;SDS011;63326;45.088;7.658;2023-05-10T14:20:10;3.72;;;2.47;;
74799;SDS011;63326;45.088;7.658;2023-05-10T14:22:37;4.40;;;2.00;;
74799;SDS011;63326;45.088;7.658;2023-05-10T14:25:04;3.25;;;1.63;;
74799;SDS011;63326;45.088;7.658;2023-05-10T14:29:57;3.03;;;1.85;;
74799;SDS011;63326;45.088;7.658;2023-05-10T14:32:24;2.97;;;1.80;;
74799;SDS011;63326;45.088;7.658;2023-05-10T14:34:51;2.42;;;1.60;;
74799;SDS011;63326;45.088;7.658;2023-05-10T14:37:17;3.03;;;1.92;;
74799;SDS011;63326;45.088;7.658;2023-05-10T14:39:44;2.83;;;1.92;;
74799;SDS011;63326;45.088;7.658;2023-05-10T14:42:11;2.67;;;1.58;;
74799;SDS011;63326;45.088;7.658;2023-05-10T14:44:38;3.00;;;1.85;;
74799;SDS011;63326;45.088;7.658;2023-05-10T14:47:04;3.50;;;2.10;;
74799;SDS011;63326;45.088;7.658;2023-05-10T14:49:31;3.47;;;1.90;;
74799;SDS011;63326;45.088;7.658;2023-05-10T14:51:58;2.42;;;1.50;;
74799;SDS011;63326;45.088;7.658;2023-05-10T14:54:24;3.67;;;1.88;;
74799;SDS011;63326;45.088;7.658;2023-05-10T14:56:51;3.20;;;2.03;;
74799;SDS011;63326;45.088;7.658;2023-05-10T14:59:17;3.28;;;1.33;;
74799;SDS011;63326;45.088;7.658;2023-05-10T15:01:44;2.38;;;1.50;;
74799;SDS011;63326;45.088;7.658;2023-05-10T15:06:40;3.13;;;1.58;;
74799;SDS011;63326;45.088;7.658;2023-05-10T15:09:07;3.47;;;2.05;;
74799;SDS011;63326;45.088;7.658;2023-05-10T15:11:33;2.78;;;1.65;;
74799;SDS011;63326;45.088;7.658;2023-05-10T15:14:00;2.75;;;1.00;;
74799;SDS011;63326;45.088;7.658;2023-05-10T15:16:28;2.17;;;1.42;;
74799;SDS011;63326;45.088;7.658;2023-05-10T15:18:54;3.22;;;1.30;;
74799;SDS011;63326;45.088;7.658;2023-05-10T15:21:21;3.17;;;1.48;;
74799;SDS011;63326;45.088;7.658;2023-05-10T15:23:48;2.15;;;1.40;;
74799;SDS011;63326;45.088;7.658;2023-05-10T15:26:15;2.75;;;1.50;;
74799;SDS011;63326;45.088;7.658;2023-05-10T15:28:42;4.28;;;1.50;;
74799;SDS011;63326;45.088;7.658;2023-05-10T15:31:09;3.13;;;1.42;;
74799;SDS011;63326;45.088;7.658;2023-05-10T15:33:36;4.55;;;1.83;;
74799;SDS011;63326;45.088;7.658;2023-05-10T15:36:04;3.28;;;1.42;;
74799;SDS011;63326;45.088;7.658;2023-05-10T15:38:31;3.97;;;1.80;;
74799;SDS011;63326;45.088;7.658;2023-05-10T15:40:57;2.78;;;1.52;;
74799;SDS011;63326;45.088;7.658;2023-05-10T15:43:24;3.50;;;1.73;;
74799;SDS011;63326;45.088;7.658;2023-05-10T15:45:51;3.65;;;1.83;;
74799;SDS011;63326;45.088;7.658;2023-05-10T15:48:17;3.00;;;1.63;;